createdAt,value
2023-04-29T00:00:04.366Z,97587.62
2023-04-29T00:02:58.110Z,97584.67
2023-04-29T00:05:24.707Z,97581.83
2023-04-29T00:07:51.229Z,97585.38
2023-04-29T00:10:17.675Z,97587.20
2023-04-29T00:12:44.055Z,97584.91
2023-04-29T00:15:10.493Z,97582.90
2023-04-29T00:17:37.146Z,97583.84
2023-04-29T00:20:04.805Z,97582.08
2023-04-29T00:22:31.247Z,97582.31
2023-04-29T00:24:57.679Z,97581.70
2023-04-29T00:27:24.436Z,97582.17
2023-04-29T00:29:51.766Z,97580.30
2023-04-29T00:32:18.383Z,97578.10
2023-04-29T00:34:44.872Z,97577.54
2023-04-29T00:37:11.248Z,97573.35
2023-04-29T00:39:40.047Z,97572.45
2023-04-29T00:42:06.696Z,97571.86
2023-04-29T00:44:33.014Z,97570.58
2023-04-29T00:46:59.360Z,97570.02
2023-04-29T00:49:25.920Z,97568.00
2023-04-29T00:51:52.931Z,97566.02
2023-04-29T00:54:19.437Z,97563.47
2023-04-29T00:56:45.993Z,97563.58
2023-04-29T00:59:12.605Z,97564.23
2023-04-29T01:01:39.175Z,97564.09
2023-04-29T01:04:06.021Z,97561.84
2023-04-29T01:06:40.269Z,97560.31
2023-04-29T01:09:22.351Z,97562.72
2023-04-29T01:12:05.493Z,97559.41
2023-04-29T01:14:32.920Z,97563.81
2023-04-29T01:17:02.420Z,97562.70
2023-04-29T01:19:38.137Z,97561.88
2023-04-29T01:22:07.426Z,97559.63
2023-04-29T01:24:34.884Z,97564.70
2023-04-29T01:27:27.738Z,97562.23
2023-04-29T01:30:07.119Z,97562.59
2023-04-29T01:32:41.080Z,97558.17
2023-04-29T01:35:10.524Z,97561.34
2023-04-29T01:37:36.971Z,97557.30
2023-04-29T01:40:19.031Z,97561.80
2023-04-29T01:43:04.497Z,97560.70
2023-04-29T01:45:33.552Z,97554.54
2023-04-29T01:48:00.062Z,97554.16
2023-04-29T01:50:26.963Z,97552.23
2023-04-29T01:52:55.372Z,97548.60
2023-04-29T01:55:21.830Z,97545.73
2023-04-29T01:57:56.244Z,97541.33
2023-04-29T02:00:55.202Z,97541.48
2023-04-29T02:03:21.815Z,97543.80
2023-04-29T02:05:51.491Z,97542.01
2023-04-29T02:08:17.930Z,97542.30
2023-04-29T02:10:51.742Z,97541.56
2023-04-29T02:13:44.064Z,97539.29
2023-04-29T02:16:12.025Z,97535.31
2023-04-29T02:18:42.102Z,97537.01
2023-04-29T02:21:08.994Z,97537.61
2023-04-29T02:23:35.869Z,97535.90
2023-04-29T02:26:02.170Z,97534.48
2023-04-29T02:28:28.707Z,97532.54
2023-04-29T02:30:54.984Z,97529.82
2023-04-29T02:33:21.319Z,97526.20
2023-04-29T02:35:47.666Z,97523.37
2023-04-29T02:38:16.093Z,97522.05
2023-04-29T02:40:42.819Z,97519.50
2023-04-29T02:43:09.115Z,97519.38
2023-04-29T02:45:35.677Z,97518.27
2023-04-29T02:48:02.099Z,97518.99
2023-04-29T02:50:28.523Z,97519.45
2023-04-29T02:52:55.042Z,97519.79
2023-04-29T02:55:21.305Z,97517.22
2023-04-29T02:57:47.640Z,97517.30
2023-04-29T03:00:14.162Z,97515.53
2023-04-29T03:02:40.700Z,97515.64
2023-04-29T03:05:07.468Z,97514.18
2023-04-29T03:07:34.073Z,97510.38
2023-04-29T03:10:00.429Z,97508.04
2023-04-29T03:12:26.786Z,97505.44
2023-04-29T03:14:53.110Z,97501.11
2023-04-29T03:17:19.427Z,97500.04
2023-04-29T03:19:45.882Z,97498.32
2023-04-29T03:22:13.408Z,97500.83
2023-04-29T03:24:41.342Z,97502.44
2023-04-29T03:27:07.819Z,97499.65
2023-04-29T03:29:34.424Z,97498.02
2023-04-29T03:32:00.978Z,97498.05
2023-04-29T03:34:27.621Z,97501.69
2023-04-29T03:37:12.611Z,97502.55
2023-04-29T03:39:41.001Z,97502.40
2023-04-29T03:42:07.342Z,97503.96
2023-04-29T03:44:33.733Z,97505.94
2023-04-29T03:47:00.026Z,97506.58
2023-04-29T03:49:26.319Z,97505.92
2023-04-29T03:51:52.704Z,97501.20
2023-04-29T03:54:19.039Z,97498.98
2023-04-29T03:56:45.978Z,97500.77
2023-04-29T03:59:12.548Z,97502.52
2023-04-29T04:01:40.448Z,97502.90
2023-04-29T04:04:07.185Z,97506.02
2023-04-29T04:06:34.881Z,97509.19
2023-04-29T04:09:02.115Z,97517.42
2023-04-29T04:11:30.511Z,97515.73
2023-04-29T04:13:59.645Z,97515.81
2023-04-29T04:16:26.080Z,97510.80
2023-04-29T04:18:52.484Z,97507.28
2023-04-29T04:21:18.871Z,97509.09
2023-04-29T04:23:51.401Z,97505.73
2023-04-29T04:26:20.834Z,97504.59
2023-04-29T04:28:56.025Z,97504.45
2023-04-29T04:31:30.668Z,97506.30
2023-04-29T04:33:57.060Z,97504.15
2023-04-29T04:36:23.623Z,97505.35
2023-04-29T04:38:49.934Z,97501.76
2023-04-29T04:41:16.342Z,97493.15
2023-04-29T04:43:45.442Z,97492.61
2023-04-29T04:46:20.623Z,97489.17
2023-04-29T04:48:59.235Z,97488.02
2023-04-29T04:51:27.203Z,97487.96
2023-04-29T04:53:53.679Z,97491.27
2023-04-29T04:56:22.548Z,97495.94
2023-04-29T04:58:49.281Z,97494.97
2023-04-29T05:01:15.658Z,97494.06
2023-04-29T05:03:42.140Z,97493.66
2023-04-29T05:06:08.786Z,97489.48
2023-04-29T05:08:35.691Z,97494.84
2023-04-29T05:11:02.700Z,97497.22
2023-04-29T05:13:29.083Z,97499.23
2023-04-29T05:15:56.050Z,97499.80
2023-04-29T05:18:25.651Z,97501.55
2023-04-29T05:20:52.239Z,97497.69
2023-04-29T05:23:18.831Z,97495.53
2023-04-29T05:25:45.898Z,97494.45
2023-04-29T05:28:12.686Z,97494.62
2023-04-29T05:30:40.811Z,97493.94
2023-04-29T05:33:07.285Z,97494.80
2023-04-29T05:35:33.687Z,97494.77
2023-04-29T05:38:00.332Z,97492.45
2023-04-29T05:40:34.977Z,97495.15
2023-04-29T05:43:26.263Z,97500.83
2023-04-29T05:45:53.268Z,97499.98
2023-04-29T05:48:20.064Z,97503.41
2023-04-29T05:50:46.463Z,97505.64
2023-04-29T05:53:12.879Z,97503.72
2023-04-29T05:55:40.828Z,97507.67
2023-04-29T05:58:07.153Z,97507.91
2023-04-29T06:00:33.647Z,97507.88
2023-04-29T06:03:03.222Z,97506.27
2023-04-29T06:05:30.213Z,97505.73
2023-04-29T06:08:12.137Z,97508.08
2023-04-29T06:10:44.155Z,97508.09
2023-04-29T06:13:10.918Z,97510.44
2023-04-29T06:15:37.445Z,97509.64
2023-04-29T06:18:03.903Z,97509.45
2023-04-29T06:20:30.286Z,97504.34
2023-04-29T06:22:56.748Z,97500.60
2023-04-29T06:25:23.052Z,97498.05
2023-04-29T06:27:50.925Z,97498.85
2023-04-29T06:30:20.249Z,97498.08
2023-04-29T06:32:46.664Z,97498.02
2023-04-29T06:35:13.050Z,97498.92
2023-04-29T06:37:58.355Z,97495.04
2023-04-29T06:40:43.291Z,97495.84
2023-04-29T06:43:30.029Z,97498.64
2023-04-29T06:46:15.141Z,97497.06
2023-04-29T06:49:07.761Z,97501.11
2023-04-29T06:51:34.324Z,97498.98
2023-04-29T06:54:00.613Z,97499.02
2023-04-29T06:56:27.010Z,97502.20
2023-04-29T06:58:53.336Z,97503.67
2023-04-29T07:01:19.754Z,97503.42
2023-04-29T07:03:46.416Z,97500.20
2023-04-29T07:06:13.029Z,97497.05
2023-04-29T07:08:39.855Z,97501.09
2023-04-29T07:11:06.238Z,97499.23
2023-04-29T07:13:32.613Z,97500.09
2023-04-29T07:15:58.966Z,97498.09
2023-04-29T07:18:25.347Z,97497.21
2023-04-29T07:20:51.671Z,97496.48
2023-04-29T07:23:18.336Z,97495.92
2023-04-29T07:25:45.642Z,97496.66
2023-04-29T07:28:15.045Z,97492.66
2023-04-29T07:30:41.386Z,97498.22
2023-04-29T07:33:08.231Z,97495.68
2023-04-29T07:35:34.646Z,97495.44
2023-04-29T07:38:00.965Z,97500.40
2023-04-29T07:40:27.306Z,97501.41
2023-04-29T07:42:57.521Z,97503.33
2023-04-29T07:45:23.829Z,97506.70
2023-04-29T07:47:50.242Z,97505.03
2023-04-29T07:50:16.808Z,97505.38
2023-04-29T07:52:43.490Z,97507.06
2023-04-29T07:55:10.412Z,97507.72
2023-04-29T07:57:36.920Z,97510.38
2023-04-29T08:00:04.740Z,97512.30
2023-04-29T08:02:40.982Z,97514.25
2023-04-29T08:05:08.589Z,97517.65
2023-04-29T08:07:35.145Z,97519.62
2023-04-29T08:10:01.484Z,97520.85
2023-04-29T08:12:28.565Z,97521.39
2023-04-29T08:14:55.104Z,97521.58
2023-04-29T08:17:21.717Z,97523.19
2023-04-29T08:19:48.078Z,97525.69
2023-04-29T08:22:14.775Z,97525.98
2023-04-29T08:24:41.096Z,97523.86
2023-04-29T08:27:07.673Z,97529.61
2023-04-29T08:29:33.987Z,97530.21
2023-04-29T08:32:00.487Z,97527.69
2023-04-29T08:34:26.980Z,97527.15
2023-04-29T08:36:53.277Z,97529.27
2023-04-29T08:39:19.977Z,97523.55
2023-04-29T08:41:46.304Z,97522.77
2023-04-29T08:44:12.787Z,97517.90
2023-04-29T08:46:39.300Z,97518.84
2023-04-29T08:49:06.388Z,97516.77
2023-04-29T08:51:32.714Z,97517.98
2023-04-29T08:53:59.211Z,97513.66
2023-04-29T08:56:27.853Z,97511.52
2023-04-29T08:58:56.111Z,97509.67
2023-04-29T09:01:23.499Z,97507.37
2023-04-29T09:03:53.488Z,97509.36
2023-04-29T09:06:20.166Z,97511.06
2023-04-29T09:08:46.799Z,97514.25
2023-04-29T09:11:14.002Z,97511.67
2023-04-29T09:13:40.350Z,97512.89
2023-04-29T09:16:12.934Z,97511.83
2023-04-29T09:18:43.241Z,97512.23
2023-04-29T09:21:17.486Z,97509.25
2023-04-29T09:23:49.441Z,97512.75
2023-04-29T09:26:23.666Z,97505.36
2023-04-29T09:29:16.628Z,97508.37
2023-04-29T09:31:43.634Z,97505.95
2023-04-29T09:34:10.484Z,97505.48
2023-04-29T09:36:39.983Z,97501.99
2023-04-29T09:39:10.042Z,97498.09
2023-04-29T09:41:40.338Z,97496.08
2023-04-29T09:44:07.662Z,97492.14
2023-04-29T09:46:34.732Z,97491.80
2023-04-29T09:49:03.895Z,97489.23
2023-04-29T09:51:30.374Z,97487.96
2023-04-29T09:53:56.819Z,97487.26
2023-04-29T09:56:23.114Z,97487.37
2023-04-29T09:58:49.521Z,97479.01
2023-04-29T10:01:16.085Z,97476.14
2023-04-29T10:03:43.240Z,97471.52
2023-04-29T10:06:10.173Z,97471.29
2023-04-29T10:08:36.834Z,97472.70
2023-04-29T10:11:04.099Z,97472.55
2023-04-29T10:13:31.320Z,97474.23
2023-04-29T10:16:08.374Z,97474.45
2023-04-29T10:18:35.607Z,97472.23
2023-04-29T10:21:02.812Z,97474.48
2023-04-29T10:23:29.980Z,97475.30
2023-04-29T10:25:56.833Z,97471.34
2023-04-29T10:28:23.818Z,97475.17
2023-04-29T10:30:50.661Z,97469.98
2023-04-29T10:33:18.290Z,97467.59
2023-04-29T10:35:46.390Z,97468.26
2023-04-29T10:38:18.959Z,97470.90
2023-04-29T10:40:47.059Z,97471.17
2023-04-29T10:43:14.109Z,97470.88
2023-04-29T10:45:40.690Z,97469.73
2023-04-29T10:48:10.835Z,97465.66
2023-04-29T10:50:46.642Z,97465.41
2023-04-29T10:53:17.343Z,97461.09
2023-04-29T10:55:46.348Z,97463.23
2023-04-29T10:58:36.188Z,97463.16
2023-04-29T11:01:03.416Z,97464.48
2023-04-29T11:03:48.958Z,97463.19
2023-04-29T11:06:16.011Z,97458.61
2023-04-29T11:08:42.302Z,97461.63
2023-04-29T11:11:08.838Z,97460.84
2023-04-29T11:13:39.039Z,97459.88
2023-04-29T11:16:06.663Z,97459.34
2023-04-29T11:18:34.048Z,97458.42
2023-04-29T11:21:06.647Z,97459.67
2023-04-29T11:23:36.884Z,97455.33
2023-04-29T11:26:03.770Z,97453.09
2023-04-29T11:28:30.878Z,97456.16
2023-04-29T11:30:58.055Z,97455.92
2023-04-29T11:33:25.019Z,97455.13
2023-04-29T11:35:51.573Z,97456.30
2023-04-29T11:38:23.269Z,97459.46
2023-04-29T11:40:49.712Z,97456.52
2023-04-29T11:43:17.160Z,97454.45
2023-04-29T11:45:47.048Z,97455.80
2023-04-29T11:48:25.676Z,97455.27
2023-04-29T11:50:58.804Z,97453.67
2023-04-29T11:53:26.246Z,97454.67
2023-04-29T11:55:53.207Z,97457.19
2023-04-29T11:58:23.902Z,97459.93
2023-04-29T12:00:50.426Z,97457.86
2023-04-29T12:03:18.433Z,97456.70
2023-04-29T12:05:51.182Z,97449.91
2023-04-29T12:08:24.812Z,97447.88
2023-04-29T12:10:51.716Z,97450.14
2023-04-29T12:13:18.928Z,97449.90
2023-04-29T12:15:45.786Z,97454.30
2023-04-29T12:18:12.512Z,97454.02
2023-04-29T12:20:39.666Z,97457.52
2023-04-29T12:23:12.883Z,97452.54
2023-04-29T12:25:39.777Z,97451.26
2023-04-29T12:28:12.679Z,97447.60
2023-04-29T12:30:39.281Z,97449.80
2023-04-29T12:33:09.110Z,97446.08
2023-04-29T12:35:36.272Z,97446.31
2023-04-29T12:38:02.734Z,97446.38
2023-04-29T12:40:30.361Z,97443.58
2023-04-29T12:42:56.826Z,97442.13
2023-04-29T12:45:26.282Z,97445.04
2023-04-29T12:47:52.903Z,97439.93
2023-04-29T12:50:19.244Z,97436.63
2023-04-29T12:52:45.756Z,97438.02
2023-04-29T12:55:12.191Z,97435.98
2023-04-29T12:57:38.731Z,97436.35
2023-04-29T13:00:05.616Z,97436.02
2023-04-29T13:02:32.493Z,97437.32
2023-04-29T13:04:59.528Z,97440.14
2023-04-29T13:07:26.716Z,97433.92
2023-04-29T13:09:53.112Z,97438.52
2023-04-29T13:12:19.736Z,97433.20
2023-04-29T13:14:46.246Z,97437.44
2023-04-29T13:17:12.841Z,97437.34
2023-04-29T13:19:51.025Z,97436.54
2023-04-29T13:22:18.491Z,97432.69
2023-04-29T13:24:44.872Z,97430.52
2023-04-29T13:27:11.394Z,97435.08
2023-04-29T13:29:38.201Z,97429.27
2023-04-29T13:32:04.775Z,97429.58
2023-04-29T13:34:31.187Z,97422.14
2023-04-29T13:37:00.589Z,97418.44
2023-04-29T13:39:27.327Z,97415.05
2023-04-29T13:41:58.758Z,97416.05
2023-04-29T13:44:34.200Z,97414.42
2023-04-29T13:47:06.209Z,97412.48
2023-04-29T13:59:42.663Z,97416.69
2023-04-29T14:02:23.997Z,97418.91
2023-04-29T14:04:51.856Z,97417.17
2023-04-29T14:07:18.530Z,97416.48
2023-04-29T14:09:44.883Z,97416.99
2023-04-29T14:12:11.313Z,97416.65
2023-04-29T14:14:38.009Z,97413.13
2023-04-29T14:17:04.333Z,97412.95
2023-04-29T14:19:30.753Z,97413.27
2023-04-29T14:21:57.367Z,97414.05
2023-04-29T14:24:23.746Z,97410.66
2023-04-29T14:26:50.305Z,97409.98
2023-04-29T14:29:16.805Z,97411.71
2023-04-29T14:31:43.160Z,97408.02
2023-04-29T14:34:09.612Z,97409.30
2023-04-29T14:36:36.006Z,97410.70
2023-04-29T14:39:02.477Z,97415.02
2023-04-29T14:41:28.941Z,97413.79
2023-04-29T14:43:55.311Z,97411.98
2023-04-29T14:46:21.782Z,97412.25
2023-04-29T14:48:48.331Z,97411.16
2023-04-29T14:51:15.019Z,97410.77
2023-04-29T14:53:41.369Z,97412.59
2023-04-29T14:56:07.761Z,97418.20
2023-04-29T14:58:34.344Z,97416.48
2023-04-29T15:01:00.714Z,97421.20
2023-04-29T15:04:09.083Z,97424.77
2023-04-29T15:06:40.741Z,97428.37
2023-04-29T15:09:08.226Z,97429.39
2023-04-29T15:11:34.593Z,97426.11
2023-04-29T15:14:01.112Z,97425.92
2023-04-29T15:16:28.963Z,97424.79
2023-04-29T15:18:55.487Z,97423.37
2023-04-29T15:21:22.366Z,97422.71
2023-04-29T15:23:49.636Z,97423.58
2023-04-29T15:26:16.018Z,97424.86
2023-04-29T15:28:42.638Z,97425.15
2023-04-29T15:31:09.670Z,97427.80
2023-04-29T15:33:36.080Z,97429.13
2023-04-29T15:36:02.836Z,97428.20
2023-04-29T15:38:29.576Z,97434.05
2023-04-29T15:40:57.363Z,97435.20
2023-04-29T15:43:24.494Z,97435.08
2023-04-29T15:45:51.030Z,97433.64
2023-04-29T15:48:17.465Z,97433.15
2023-04-29T15:50:43.909Z,97432.99
2023-04-29T15:53:10.298Z,97431.02
2023-04-29T15:55:36.795Z,97431.21
2023-04-29T15:58:03.636Z,97436.61
2023-04-29T16:00:30.281Z,97436.45
2023-04-29T16:02:56.805Z,97432.13
2023-04-29T16:05:23.656Z,97436.78
2023-04-29T16:07:50.096Z,97439.08
2023-04-29T16:10:16.497Z,97441.88
2023-04-29T16:12:43.208Z,97441.23
2023-04-29T16:15:10.684Z,97441.21
2023-04-29T16:17:37.342Z,97438.92
2023-04-29T16:20:03.974Z,97434.27
2023-04-29T16:22:33.038Z,97431.73
2023-04-29T16:24:59.642Z,97435.50
2023-04-29T16:27:27.194Z,97438.72
2023-04-29T16:29:55.506Z,97437.92
2023-04-29T16:32:22.408Z,97438.66
2023-04-29T16:34:48.969Z,97436.77
2023-04-29T16:37:15.526Z,97434.92
2023-04-29T16:39:41.996Z,97432.94
2023-04-29T16:42:09.336Z,97435.43
2023-04-29T16:44:35.734Z,97433.32
2023-04-29T16:47:02.150Z,97428.98
2023-04-29T16:49:29.572Z,97429.36
2023-04-29T16:51:56.041Z,97431.91
2023-04-29T16:54:22.845Z,97434.55
2023-04-29T16:56:51.656Z,97437.23
2023-04-29T16:59:18.281Z,97442.61
2023-04-29T17:01:44.835Z,97448.34
2023-04-29T17:04:13.062Z,97455.22
2023-04-29T17:06:39.828Z,97461.94
2023-04-29T17:09:10.720Z,97466.17
2023-04-29T17:11:37.356Z,97463.27
2023-04-29T17:14:03.762Z,97463.02
2023-04-29T17:16:30.168Z,97466.28
2023-04-29T17:18:56.817Z,97470.02
2023-04-29T17:21:23.231Z,97479.98
2023-04-29T17:23:49.882Z,97488.05
2023-04-29T17:26:16.430Z,97492.29
2023-04-29T17:28:42.781Z,97491.00
2023-04-29T17:31:09.119Z,97492.69
2023-04-29T17:33:35.760Z,97494.26
2023-04-29T17:36:02.979Z,97497.43
2023-04-29T17:38:29.795Z,97500.35
2023-04-29T17:40:56.616Z,97502.05
2023-04-29T17:43:24.960Z,97496.97
2023-04-29T17:45:54.159Z,97500.99
2023-04-29T17:48:22.753Z,97495.10
2023-04-29T17:50:56.115Z,97500.53
2023-04-29T17:53:22.539Z,97501.14
2023-04-29T17:55:48.897Z,97503.98
2023-04-29T17:58:15.540Z,97501.36
2023-04-29T18:00:42.116Z,97498.33
2023-04-29T18:03:08.718Z,97500.89
2023-04-29T18:05:36.689Z,97502.09
2023-04-29T18:08:03.440Z,97501.52
2023-04-29T18:10:29.910Z,97504.17
2023-04-29T18:12:56.459Z,97505.59
2023-04-29T18:15:23.030Z,97502.35
2023-04-29T18:17:49.434Z,97506.04
2023-04-29T18:20:15.804Z,97504.89
2023-04-29T18:22:43.183Z,97511.58
2023-04-29T18:25:09.765Z,97515.08
2023-04-29T18:27:36.219Z,97517.59
2023-04-29T18:30:03.224Z,97521.67
2023-04-29T18:32:29.680Z,97526.37
2023-04-29T18:34:56.088Z,97530.53
2023-04-29T18:37:22.648Z,97529.48
2023-04-29T18:39:48.980Z,97532.95
2023-04-29T18:42:15.413Z,97534.70
2023-04-29T18:44:42.014Z,97535.79
2023-04-29T18:47:08.447Z,97534.44
2023-04-29T18:49:37.370Z,97540.58
2023-04-29T18:52:04.862Z,97537.21
2023-04-29T18:54:31.256Z,97541.01
2023-04-29T18:56:58.178Z,97539.52
2023-04-29T18:59:27.323Z,97539.55
2023-04-29T19:01:54.168Z,97541.84
2023-04-29T19:04:20.850Z,97540.89
2023-04-29T19:06:47.469Z,97542.66
2023-04-29T19:09:13.893Z,97542.20
2023-04-29T19:11:40.622Z,97546.59
2023-04-29T19:14:07.151Z,97543.63
2023-04-29T19:16:36.285Z,97547.14
2023-04-29T19:19:04.031Z,97549.45
2023-04-29T19:21:31.964Z,97551.90
2023-04-29T19:23:58.587Z,97553.65
2023-04-29T19:26:25.453Z,97551.19
2023-04-29T19:28:51.885Z,97546.91
2023-04-29T19:31:18.379Z,97544.91
2023-04-29T19:33:44.940Z,97545.56
2023-04-29T19:36:11.532Z,97547.94
2023-04-29T19:38:37.982Z,97548.19
2023-04-29T19:41:04.449Z,97551.14
2023-04-29T19:43:31.036Z,97546.00
2023-04-29T19:45:57.501Z,97547.52
2023-04-29T19:48:23.919Z,97544.76
2023-04-29T19:50:50.881Z,97547.35
2023-04-29T19:53:17.271Z,97548.33
2023-04-29T19:55:46.360Z,97549.29
2023-04-29T19:58:13.049Z,97552.52
2023-04-29T20:00:39.513Z,97548.73
2023-04-29T20:03:06.037Z,97548.27
2023-04-29T20:05:32.846Z,97549.31
2023-04-29T20:07:59.445Z,97552.86
2023-04-29T20:10:28.216Z,97556.34
2023-04-29T20:12:56.640Z,97558.93
2023-04-29T20:15:23.141Z,97554.28
2023-04-29T20:17:49.850Z,97556.83
2023-04-29T20:20:16.509Z,97555.71
2023-04-29T20:22:42.941Z,97558.96
2023-04-29T20:25:09.384Z,97560.48
2023-04-29T20:27:36.020Z,97562.41
2023-04-29T20:30:02.718Z,97561.21
2023-04-29T20:32:29.157Z,97564.73
2023-04-29T20:34:55.649Z,97563.22
2023-04-29T20:37:22.060Z,97560.20
2023-04-29T20:39:48.854Z,97558.36
2023-04-29T20:42:15.466Z,97554.30
2023-04-29T20:44:42.060Z,97557.05
2023-04-29T20:47:08.425Z,97556.08
2023-04-29T20:49:37.528Z,97554.73
2023-04-29T20:52:04.267Z,97556.17
2023-04-29T20:54:30.612Z,97554.16
2023-04-29T20:56:59.855Z,97555.05
2023-04-29T20:59:27.150Z,97558.61
2023-04-29T21:01:53.983Z,97560.64
2023-04-29T21:04:20.560Z,97566.70
2023-04-29T21:06:46.993Z,97568.44
2023-04-29T21:09:13.833Z,97570.69
2023-04-29T21:11:40.246Z,97568.75
2023-04-29T21:14:20.962Z,97571.52
2023-04-29T21:16:47.426Z,97578.25
2023-04-29T21:19:16.479Z,97580.74
2023-04-29T21:21:42.823Z,97581.25
2023-04-29T21:24:09.356Z,97581.10
2023-04-29T21:26:35.755Z,97578.33
2023-04-29T21:29:02.311Z,97573.17
2023-04-29T21:31:32.403Z,97574.02
2023-04-29T21:33:58.949Z,97577.55
2023-04-29T21:36:25.616Z,97580.04
2023-04-29T21:38:52.173Z,97587.02
2023-04-29T21:41:23.015Z,97587.49
2023-04-29T21:43:49.891Z,97593.23
2023-04-29T21:46:16.619Z,97594.91
2023-04-29T21:48:43.439Z,97595.90
2023-04-29T21:51:10.019Z,97601.05
2023-04-29T21:53:36.708Z,97601.37
2023-04-29T21:56:04.407Z,97602.48
2023-04-29T21:58:30.841Z,97605.42
2023-04-29T22:00:57.344Z,97606.48
2023-04-29T22:03:23.865Z,97605.58
2023-04-29T22:05:50.348Z,97605.27
2023-04-29T22:08:16.964Z,97602.94
2023-04-29T22:10:43.378Z,97602.80
2023-04-29T22:13:09.927Z,97601.98
2023-04-29T22:15:36.291Z,97605.45
2023-04-29T22:18:02.707Z,97604.15
2023-04-29T22:20:29.087Z,97599.45
2023-04-29T22:22:55.617Z,97602.71
2023-04-29T22:25:22.168Z,97599.63
2023-04-29T22:27:49.237Z,97596.09
2023-04-29T22:30:15.580Z,97597.77
2023-04-29T22:32:41.978Z,97598.64
2023-04-29T22:35:08.462Z,97596.73
2023-04-29T22:37:34.921Z,97597.60
2023-04-29T22:40:01.253Z,97597.22
2023-04-29T22:42:27.599Z,97600.20
2023-04-29T22:44:53.935Z,97604.81
2023-04-29T22:47:20.418Z,97604.58
2023-04-29T22:49:46.856Z,97607.02
2023-04-29T22:52:13.339Z,97610.08
2023-04-29T22:54:39.758Z,97610.09
2023-04-29T22:57:06.222Z,97607.82
2023-04-29T22:59:32.820Z,97612.42
2023-04-29T23:01:59.265Z,97610.48
2023-04-29T23:04:25.645Z,97608.91
2023-04-29T23:06:52.132Z,97609.21
2023-04-29T23:09:18.438Z,97608.31
2023-04-29T23:11:45.043Z,97608.86
2023-04-29T23:14:11.379Z,97609.42
2023-04-29T23:16:37.701Z,97612.06
2023-04-29T23:19:04.088Z,97611.03
2023-04-29T23:21:30.474Z,97612.83
2023-04-29T23:23:56.903Z,97608.17
2023-04-29T23:26:23.269Z,97613.65
2023-04-29T23:28:49.948Z,97610.88
2023-04-29T23:31:16.317Z,97613.64
2023-04-29T23:33:42.802Z,97613.13
2023-04-29T23:36:09.177Z,97613.55
2023-04-29T23:38:35.514Z,97616.70
2023-04-29T23:41:02.031Z,97614.78
2023-04-29T23:43:28.581Z,97612.70
2023-04-29T23:45:55.154Z,97611.90
2023-04-29T23:48:21.512Z,97609.68
2023-04-29T23:50:47.845Z,97610.77
2023-04-29T23:53:14.343Z,97610.02
2023-04-29T23:55:40.752Z,97614.97
2023-04-29T23:58:07.090Z,97611.92
